createdAt,value
2018-11-25T00:02:41.314Z,16.47
2018-11-25T00:07:45.798Z,17.03
2018-11-25T00:12:50.042Z,13.07
2018-11-25T00:17:53.696Z,16.60
2018-11-25T00:22:57.195Z,15.63
2018-11-25T00:28:00.977Z,11.77
2018-11-25T00:33:04.769Z,13.68
2018-11-25T00:38:08.479Z,12.47
2018-11-25T00:43:12.294Z,10.23
2018-11-25T00:48:16.632Z,15.10
2018-11-25T00:53:20.222Z,15.10
2018-11-25T00:58:24.267Z,15.23
2018-11-25T01:03:27.942Z,12.68
2018-11-25T01:08:32.349Z,13.50
2018-11-25T01:13:36.388Z,13.63
2018-11-25T01:18:40.558Z,14.67
2018-11-25T01:23:44.156Z,12.87
2018-11-25T01:28:47.675Z,14.83
2018-11-25T01:33:52.755Z,11.68
2018-11-25T01:38:56.392Z,14.40
2018-11-25T01:44:01.483Z,15.80
2018-11-25T01:49:05.070Z,14.30
2018-11-25T01:54:08.754Z,15.20
2018-11-25T01:59:12.299Z,13.87
2018-11-25T02:04:16.104Z,15.83
2018-11-25T02:09:20.599Z,16.57
2018-11-25T02:14:25.005Z,15.70
2018-11-25T02:19:28.817Z,14.47
2018-11-25T02:24:32.512Z,16.07
2018-11-25T02:35:05.034Z,13.57
2018-11-25T02:40:12.944Z,14.85
2018-11-25T02:45:18.515Z,20.00
2018-11-25T02:50:27.526Z,20.10
2018-11-25T02:55:31.998Z,20.57
2018-11-25T03:00:36.309Z,20.27
2018-11-25T03:05:40.207Z,17.90
2018-11-25T03:10:44.612Z,20.53
2018-11-25T03:15:48.392Z,18.55
2018-11-25T03:20:53.264Z,17.40
2018-11-25T03:25:57.329Z,15.90
2018-11-25T03:31:02.739Z,26.73
2018-11-25T03:36:06.285Z,24.40
2018-11-25T03:41:09.833Z,23.90
2018-11-25T03:46:13.377Z,15.93
2018-11-25T03:51:17.100Z,20.90
2018-11-25T03:56:21.749Z,16.40
2018-11-25T04:01:27.262Z,16.40
2018-11-25T04:06:31.684Z,15.43
2018-11-25T04:11:36.163Z,15.07
2018-11-25T04:16:40.335Z,18.87
2018-11-25T04:21:44.216Z,23.50
2018-11-25T04:26:47.862Z,25.73
2018-11-25T04:31:51.539Z,19.00
2018-11-25T04:36:55.261Z,20.17
2018-11-25T04:41:58.827Z,21.00
2018-11-25T04:47:02.705Z,24.97
2018-11-25T04:52:07.973Z,17.73
2018-11-25T04:57:12.654Z,19.52
2018-11-25T05:02:16.384Z,19.70
2018-11-25T05:07:20.065Z,19.20
2018-11-25T05:12:23.678Z,23.23
2018-11-25T05:17:27.640Z,22.93
2018-11-25T05:22:33.006Z,19.73
2018-11-25T05:27:37.163Z,23.30
2018-11-25T05:32:40.720Z,22.97
2018-11-25T05:37:44.262Z,24.37
2018-11-25T05:42:47.936Z,23.62
2018-11-25T05:47:52.031Z,24.70
2018-11-25T05:52:56.181Z,22.13
2018-11-25T05:58:00.226Z,27.53
2018-11-25T06:03:04.815Z,27.53
2018-11-25T06:08:08.386Z,27.23
2018-11-25T06:13:11.915Z,24.83
2018-11-25T06:18:15.658Z,24.10
2018-11-25T06:23:19.133Z,28.33
2018-11-25T06:28:22.818Z,25.00
2018-11-25T06:33:26.270Z,23.63
2018-11-25T06:38:30.028Z,34.07
2018-11-25T06:43:33.833Z,23.17
2018-11-25T06:48:38.478Z,26.57
2018-11-25T06:53:42.827Z,23.13
2018-11-25T06:58:46.355Z,22.75
2018-11-25T07:03:50.295Z,24.73
2018-11-25T07:08:55.106Z,21.97
2018-11-25T07:13:59.288Z,25.20
2018-11-25T07:19:03.940Z,27.43
2018-11-25T07:24:08.998Z,21.50
2018-11-25T07:29:12.539Z,24.23
2018-11-25T07:34:16.696Z,20.77
2018-11-25T07:39:20.576Z,32.80
2018-11-25T07:44:24.838Z,32.87
2018-11-25T07:49:29.073Z,22.03
2018-11-25T07:54:34.560Z,24.78
2018-11-25T07:59:38.070Z,20.68
2018-11-25T08:04:42.175Z,31.37
2018-11-25T08:09:46.219Z,26.40
2018-11-25T08:14:50.794Z,24.60
2018-11-25T08:19:55.039Z,23.73
2018-11-25T08:24:58.876Z,55.07
2018-11-25T08:30:04.293Z,34.37
2018-11-25T08:35:17.247Z,28.87
2018-11-25T08:40:23.780Z,31.27
2018-11-25T08:45:27.996Z,36.37
2018-11-25T08:50:31.780Z,31.30
2018-11-25T08:55:35.450Z,33.17
2018-11-25T09:00:39.001Z,36.00
2018-11-25T09:05:42.650Z,27.40
2018-11-25T09:10:46.391Z,23.90
2018-11-25T09:15:50.631Z,28.20
2018-11-25T09:20:54.573Z,23.23
2018-11-25T09:25:59.491Z,24.63
2018-11-25T09:31:03.067Z,24.03
2018-11-25T09:36:06.808Z,25.07
2018-11-25T09:41:10.972Z,28.80
2018-11-25T09:46:15.514Z,29.10
2018-11-25T09:51:20.012Z,33.97
2018-11-25T09:56:23.745Z,31.03
2018-11-25T10:01:27.710Z,29.70
2018-11-25T10:06:32.196Z,26.67
2018-11-25T10:11:35.945Z,30.27
2018-11-25T10:16:39.617Z,30.97
2018-11-25T10:21:43.283Z,27.57
2018-11-25T10:26:48.413Z,33.35
2018-11-25T10:32:09.259Z,34.83
2018-11-25T10:37:13.665Z,33.30
2018-11-25T10:42:17.740Z,38.27
2018-11-25T10:47:21.946Z,33.25
2018-11-25T10:52:26.155Z,32.60
2018-11-25T10:57:31.056Z,32.93
2018-11-25T11:02:41.669Z,29.52
2018-11-25T11:07:45.662Z,27.83
2018-11-25T11:12:50.802Z,30.05
2018-11-25T11:17:55.802Z,27.23
2018-11-25T11:22:59.557Z,26.80
2018-11-25T11:28:03.261Z,21.13
2018-11-25T11:33:07.412Z,21.27
2018-11-25T11:38:11.905Z,24.23
2018-11-25T11:43:16.271Z,21.37
2018-11-25T11:48:21.355Z,19.37
2018-11-25T11:53:25.592Z,22.37
2018-11-25T11:58:29.669Z,20.67
2018-11-25T12:03:36.411Z,21.47
2018-11-25T12:08:40.097Z,19.87
2018-11-25T12:13:43.807Z,17.83
2018-11-25T12:18:47.483Z,19.97
2018-11-25T12:23:53.101Z,24.27
2018-11-25T12:28:57.407Z,27.77
2018-11-25T12:34:05.409Z,18.00
2018-11-25T12:39:10.138Z,19.07
2018-11-25T12:44:14.214Z,17.87
2018-11-25T12:49:18.071Z,21.50
2018-11-25T12:54:22.869Z,20.53
2018-11-25T12:59:27.074Z,20.50
2018-11-25T13:04:31.298Z,26.87
2018-11-25T13:09:36.248Z,24.93
2018-11-25T13:14:40.085Z,20.63
2018-11-25T13:19:43.674Z,24.87
2018-11-25T13:24:47.455Z,16.87
2018-11-25T13:29:51.620Z,20.83
2018-11-25T13:34:55.666Z,24.77
2018-11-25T13:39:59.843Z,22.23
2018-11-25T13:45:03.805Z,22.03
2018-11-25T13:50:12.358Z,43.37
2018-11-25T13:55:17.527Z,23.10
2018-11-25T14:00:57.153Z,16.10
2018-11-25T14:06:02.264Z,18.80
2018-11-25T14:11:10.366Z,21.97
2018-11-25T14:16:17.239Z,13.30
2018-11-25T14:21:21.535Z,15.90
2018-11-25T14:26:28.288Z,13.20
2018-11-25T14:31:31.932Z,16.87
2018-11-25T14:36:35.821Z,14.23
2018-11-25T14:41:40.437Z,8.40
2018-11-25T14:46:44.982Z,9.20
2018-11-25T14:51:50.249Z,6.20
2018-11-25T14:56:53.956Z,7.42
2018-11-25T15:01:57.701Z,8.57
2018-11-25T15:07:01.308Z,11.83
2018-11-25T15:12:05.294Z,9.23
2018-11-25T15:17:10.504Z,9.53
2018-11-25T15:22:14.741Z,12.10
2018-11-25T15:27:18.649Z,11.60
2018-11-25T15:32:22.302Z,10.33
2018-11-25T15:37:27.154Z,14.60
2018-11-25T15:42:32.780Z,16.90
2018-11-25T15:47:37.867Z,11.27
2018-11-25T15:52:41.877Z,13.80
2018-11-25T15:57:46.060Z,13.53
2018-11-25T16:02:50.607Z,10.73
2018-11-25T16:07:54.715Z,10.13
2018-11-25T16:12:58.915Z,10.20
2018-11-25T16:18:03.305Z,12.23
2018-11-25T16:23:10.275Z,10.43
2018-11-25T16:28:22.039Z,15.80
2018-11-25T16:33:26.408Z,11.40
2018-11-25T16:38:30.553Z,11.83
2018-11-25T16:43:36.387Z,13.83
2018-11-25T16:48:41.132Z,26.43
2018-11-25T16:53:47.495Z,13.33
2018-11-25T16:58:51.990Z,10.23
2018-11-25T17:03:55.715Z,11.10
2018-11-25T17:08:59.392Z,15.77
2018-11-25T17:14:02.911Z,14.13
2018-11-25T17:19:06.434Z,18.13
2018-11-25T17:24:10.070Z,17.40
2018-11-25T17:29:13.805Z,15.88
2018-11-25T17:34:17.511Z,12.97
2018-11-25T17:39:21.853Z,14.10
2018-11-25T17:44:26.302Z,21.87
2018-11-25T17:49:30.028Z,33.80
2018-11-25T17:54:33.557Z,27.60
2018-11-25T17:59:38.991Z,19.23
2018-11-25T18:04:44.617Z,16.17
2018-11-25T18:09:48.255Z,16.17
2018-11-25T18:14:51.928Z,15.07
2018-11-25T18:19:55.549Z,12.67
2018-11-25T18:24:59.356Z,18.87
2018-11-25T18:30:03.111Z,12.30
2018-11-25T18:35:08.626Z,28.57
2018-11-25T18:40:14.442Z,47.33
2018-11-25T18:45:19.834Z,29.20
2018-11-25T18:50:23.770Z,24.23
2018-11-25T18:55:26.344Z,18.67
2018-11-25T19:00:47.685Z,17.17
2018-11-25T19:05:51.327Z,14.87
2018-11-25T19:10:55.080Z,15.43
2018-11-25T19:15:59.014Z,12.37
2018-11-25T19:21:03.011Z,19.23
2018-11-25T19:26:07.550Z,19.97
2018-11-25T19:31:12.031Z,16.07
2018-11-25T19:36:15.643Z,18.23
2018-11-25T19:41:19.252Z,32.83
2018-11-25T19:46:23.118Z,31.27
2018-11-25T19:51:27.423Z,30.05
2018-11-25T19:56:31.319Z,31.33
2018-11-25T20:01:35.469Z,25.97
2018-11-25T20:06:39.048Z,24.53
2018-11-25T20:11:42.742Z,25.17
2018-11-25T20:16:51.870Z,22.77
2018-11-25T20:22:00.821Z,25.70
2018-11-25T20:27:09.669Z,27.73
2018-11-25T20:32:19.239Z,32.10
2018-11-25T20:37:26.933Z,30.53
2018-11-25T20:42:29.582Z,35.03
2018-11-25T20:47:35.694Z,35.33
2018-11-25T20:52:44.898Z,35.17
2018-11-25T20:57:49.127Z,33.73
2018-11-25T21:02:52.870Z,34.18
2018-11-25T21:07:56.688Z,35.87
2018-11-25T21:13:00.468Z,33.20
2018-11-25T21:18:04.705Z,30.63
2018-11-25T21:23:09.501Z,26.73
2018-11-25T21:28:13.087Z,31.90
2018-11-25T21:33:19.560Z,31.63
2018-11-25T21:38:23.825Z,33.93
2018-11-25T21:43:27.520Z,35.87
2018-11-25T21:48:31.163Z,33.00
2018-11-25T21:53:34.746Z,38.40
2018-11-25T21:58:38.624Z,35.03
2018-11-25T22:03:42.965Z,27.83
2018-11-25T22:08:47.545Z,35.23
2018-11-25T22:13:51.067Z,40.00
2018-11-25T22:18:54.585Z,54.33
2018-11-25T22:23:58.077Z,35.97
2018-11-25T22:29:01.547Z,42.43
2018-11-25T22:34:05.976Z,41.57
2018-11-25T22:39:11.690Z,41.93
2018-11-25T22:44:17.113Z,38.46
2018-11-25T22:49:20.645Z,38.27
2018-11-25T22:54:24.349Z,35.13
2018-11-25T22:59:28.093Z,31.07
2018-11-25T23:04:43.546Z,33.53
2018-11-25T23:09:47.106Z,32.43
2018-11-25T23:14:50.916Z,29.00
2018-11-25T23:19:54.388Z,28.83
2018-11-25T23:24:57.878Z,27.10
2018-11-25T23:30:01.359Z,27.53
2018-11-25T23:35:07.216Z,25.37
2018-11-25T23:40:11.778Z,28.07
2018-11-25T23:45:16.758Z,28.53
2018-11-25T23:50:20.282Z,33.10
2018-11-25T23:55:24.558Z,28.97
